sensor_id;sensor_type;location;lat;lon;timestamp;temperature;humidity
36790;DHT22;22740;52.182;8.780;2023-03-18T00:01:37;11.70;99.90
36790;DHT22;22740;52.182;8.780;2023-03-18T00:07:39;11.60;99.90
36790;DHT22;22740;52.182;8.780;2023-03-18T00:13:43;11.40;99.90
36790;DHT22;22740;52.182;8.780;2023-03-18T00:19:45;11.10;99.90
36790;DHT22;22740;52.182;8.780;2023-03-18T00:25:48;10.90;99.90
36790;DHT22;22740;52.182;8.780;2023-03-18T00:31:52;10.70;99.90
36790;DHT22;22740;52.182;8.780;2023-03-18T00:37:54;10.60;99.90
36790;DHT22;22740;52.182;8.780;2023-03-18T00:43:56;10.50;99.90
36790;DHT22;22740;52.182;8.780;2023-03-18T00:49:58;10.40;99.90
36790;DHT22;22740;52.182;8.780;2023-03-18T00:56:00;10.30;99.90
36790;DHT22;22740;52.182;8.780;2023-03-18T01:02:02;10.10;99.90
36790;DHT22;22740;52.182;8.780;2023-03-18T01:08:05;10.00;99.90
36790;DHT22;22740;52.182;8.780;2023-03-18T01:14:07;10.00;99.90
36790;DHT22;22740;52.182;8.780;2023-03-18T01:20:10;10.00;99.90
36790;DHT22;22740;52.182;8.780;2023-03-18T01:26:13;9.90;99.90
36790;DHT22;22740;52.182;8.780;2023-03-18T01:32:15;9.90;99.90
36790;DHT22;22740;52.182;8.780;2023-03-18T01:38:17;9.80;99.90
36790;DHT22;22740;52.182;8.780;2023-03-18T01:44:22;9.80;99.90
36790;DHT22;22740;52.182;8.780;2023-03-18T01:50:27;9.70;99.90
36790;DHT22;22740;52.182;8.780;2023-03-18T01:56:32;9.60;99.90
36790;DHT22;22740;52.182;8.780;2023-03-18T02:02:39;9.60;99.90
36790;DHT22;22740;52.182;8.780;2023-03-18T02:08:41;9.60;99.90
36790;DHT22;22740;52.182;8.780;2023-03-18T02:14:43;9.70;99.90
36790;DHT22;22740;52.182;8.780;2023-03-18T02:21:12;9.70;99.90
36790;DHT22;22740;52.182;8.780;2023-03-18T02:27:27;9.60;99.90
36790;DHT22;22740;52.182;8.780;2023-03-18T02:33:33;9.70;99.90
36790;DHT22;22740;52.182;8.780;2023-03-18T02:39:36;9.70;99.90
36790;DHT22;22740;52.182;8.780;2023-03-18T02:51:42;9.70;99.90
36790;DHT22;22740;52.182;8.780;2023-03-18T02:57:44;9.70;99.90
36790;DHT22;22740;52.182;8.780;2023-03-18T03:03:47;9.70;99.90
36790;DHT22;22740;52.182;8.780;2023-03-18T03:09:49;9.80;99.90
36790;DHT22;22740;52.182;8.780;2023-03-18T03:15:51;9.80;99.90
36790;DHT22;22740;52.182;8.780;2023-03-18T03:21:53;9.90;99.90
36790;DHT22;22740;52.182;8.780;2023-03-18T03:27:55;9.90;99.90
36790;DHT22;22740;52.182;8.780;2023-03-18T03:33:57;9.90;99.90
36790;DHT22;22740;52.182;8.780;2023-03-18T03:39:59;10.00;99.90
36790;DHT22;22740;52.182;8.780;2023-03-18T03:46:01;10.10;99.90
36790;DHT22;22740;52.182;8.780;2023-03-18T03:52:04;10.10;99.90
36790;DHT22;22740;52.182;8.780;2023-03-18T03:58:06;10.10;99.90
36790;DHT22;22740;52.182;8.780;2023-03-18T04:04:08;10.10;99.90
36790;DHT22;22740;52.182;8.780;2023-03-18T04:10:15;10.00;99.90
36790;DHT22;22740;52.182;8.780;2023-03-18T04:16:18;10.00;99.90
36790;DHT22;22740;52.182;8.780;2023-03-18T04:22:20;9.90;99.90
36790;DHT22;22740;52.182;8.780;2023-03-18T04:28:22;9.80;99.90
36790;DHT22;22740;52.182;8.780;2023-03-18T04:34:24;9.70;99.90
36790;DHT22;22740;52.182;8.780;2023-03-18T04:40:26;9.60;99.90
36790;DHT22;22740;52.182;8.780;2023-03-18T04:46:28;9.50;99.90
36790;DHT22;22740;52.182;8.780;2023-03-18T04:52:32;9.50;99.90
36790;DHT22;22740;52.182;8.780;2023-03-18T04:58:34;9.50;99.90
36790;DHT22;22740;52.182;8.780;2023-03-18T05:04:37;9.50;99.90
36790;DHT22;22740;52.182;8.780;2023-03-18T05:10:40;9.60;99.90
36790;DHT22;22740;52.182;8.780;2023-03-18T05:16:42;9.60;99.90
36790;DHT22;22740;52.182;8.780;2023-03-18T05:22:43;9.70;99.90
36790;DHT22;22740;52.182;8.780;2023-03-18T05:28:45;9.80;99.90
36790;DHT22;22740;52.182;8.780;2023-03-18T05:34:48;9.80;99.90
36790;DHT22;22740;52.182;8.780;2023-03-18T05:40:56;9.80;99.90
36790;DHT22;22740;52.182;8.780;2023-03-18T05:46:59;9.80;99.90
36790;DHT22;22740;52.182;8.780;2023-03-18T05:53:03;9.90;99.90
36790;DHT22;22740;52.182;8.780;2023-03-18T05:59:05;9.90;99.90
36790;DHT22;22740;52.182;8.780;2023-03-18T06:05:08;10.00;99.90
36790;DHT22;22740;52.182;8.780;2023-03-18T06:11:13;10.00;99.90
36790;DHT22;22740;52.182;8.780;2023-03-18T06:17:15;10.10;99.90
36790;DHT22;22740;52.182;8.780;2023-03-18T06:23:17;10.20;99.90
36790;DHT22;22740;52.182;8.780;2023-03-18T06:29:19;10.30;99.90
36790;DHT22;22740;52.182;8.780;2023-03-18T06:35:22;10.30;99.90
36790;DHT22;22740;52.182;8.780;2023-03-18T06:41:28;10.40;99.90
36790;DHT22;22740;52.182;8.780;2023-03-18T06:47:30;10.50;99.90
36790;DHT22;22740;52.182;8.780;2023-03-18T06:53:34;10.40;99.90
36790;DHT22;22740;52.182;8.780;2023-03-18T06:59:37;10.30;99.90
36790;DHT22;22740;52.182;8.780;2023-03-18T07:05:40;10.40;99.90
36790;DHT22;22740;52.182;8.780;2023-03-18T07:11:44;10.60;99.90
36790;DHT22;22740;52.182;8.780;2023-03-18T07:17:48;10.70;99.90
36790;DHT22;22740;52.182;8.780;2023-03-18T07:23:50;10.70;99.90
36790;DHT22;22740;52.182;8.780;2023-03-18T07:29:52;10.80;99.90
36790;DHT22;22740;52.182;8.780;2023-03-18T07:35:54;10.90;99.90
36790;DHT22;22740;52.182;8.780;2023-03-18T07:41:57;10.90;99.90
36790;DHT22;22740;52.182;8.780;2023-03-18T07:47:59;11.10;99.90
36790;DHT22;22740;52.182;8.780;2023-03-18T07:54:02;11.20;99.90
36790;DHT22;22740;52.182;8.780;2023-03-18T08:00:07;11.30;99.90
36790;DHT22;22740;52.182;8.780;2023-03-18T08:06:09;11.40;99.90
36790;DHT22;22740;52.182;8.780;2023-03-18T08:12:12;11.40;99.90
36790;DHT22;22740;52.182;8.780;2023-03-18T08:18:13;11.40;99.90
36790;DHT22;22740;52.182;8.780;2023-03-18T08:24:15;11.50;99.90
36790;DHT22;22740;52.182;8.780;2023-03-18T08:30:18;11.50;99.90
36790;DHT22;22740;52.182;8.780;2023-03-18T08:36:21;11.50;99.90
36790;DHT22;22740;52.182;8.780;2023-03-18T08:42:24;11.80;99.90
36790;DHT22;22740;52.182;8.780;2023-03-18T08:48:25;12.00;99.90
36790;DHT22;22740;52.182;8.780;2023-03-18T08:54:27;12.40;99.90
36790;DHT22;22740;52.182;8.780;2023-03-18T09:00:29;12.40;99.90
36790;DHT22;22740;52.182;8.780;2023-03-18T09:06:31;12.20;99.90
36790;DHT22;22740;52.182;8.780;2023-03-18T09:12:33;12.10;99.90
36790;DHT22;22740;52.182;8.780;2023-03-18T09:18:36;12.10;99.90
36790;DHT22;22740;52.182;8.780;2023-03-18T09:24:38;12.10;99.90
36790;DHT22;22740;52.182;8.780;2023-03-18T09:30:41;12.10;99.90
36790;DHT22;22740;52.182;8.780;2023-03-18T09:36:43;12.10;99.90
36790;DHT22;22740;52.182;8.780;2023-03-18T09:42:54;12.30;99.90
36790;DHT22;22740;52.182;8.780;2023-03-18T09:55:26;13.10;99.90
36790;DHT22;22740;52.182;8.780;2023-03-18T10:01:35;13.20;99.90
36790;DHT22;22740;52.182;8.780;2023-03-18T10:07:40;13.40;99.90
36790;DHT22;22740;52.182;8.780;2023-03-18T10:13:52;13.70;99.90
36790;DHT22;22740;52.182;8.780;2023-03-18T10:19:57;13.70;99.90
36790;DHT22;22740;52.182;8.780;2023-03-18T10:26:07;13.60;99.90
36790;DHT22;22740;52.182;8.780;2023-03-18T10:38:51;13.50;99.90
36790;DHT22;22740;52.182;8.780;2023-03-18T10:51:35;14.90;99.90
36790;DHT22;22740;52.182;8.780;2023-03-18T10:57:38;14.60;99.90
36790;DHT22;22740;52.182;8.780;2023-03-18T11:03:44;14.40;99.90
36790;DHT22;22740;52.182;8.780;2023-03-18T11:09:47;14.70;99.90
36790;DHT22;22740;52.182;8.780;2023-03-18T11:15:51;14.90;99.90
36790;DHT22;22740;52.182;8.780;2023-03-18T11:22:20;15.20;99.90
36790;DHT22;22740;52.182;8.780;2023-03-18T11:28:28;15.20;99.90
36790;DHT22;22740;52.182;8.780;2023-03-18T11:34:31;15.20;99.90
36790;DHT22;22740;52.182;8.780;2023-03-18T11:40:38;15.30;99.90
36790;DHT22;22740;52.182;8.780;2023-03-18T11:46:54;15.20;99.90
36790;DHT22;22740;52.182;8.780;2023-03-18T11:53:22;15.30;99.90
36790;DHT22;22740;52.182;8.780;2023-03-18T11:59:53;15.80;99.90
36790;DHT22;22740;52.182;8.780;2023-03-18T12:06:22;16.30;99.90
36790;DHT22;22740;52.182;8.780;2023-03-18T12:31:37;16.10;99.90
36790;DHT22;22740;52.182;8.780;2023-03-18T12:50:35;16.70;99.90
36790;DHT22;22740;52.182;8.780;2023-03-18T12:56:43;16.60;99.90
36790;DHT22;22740;52.182;8.780;2023-03-18T13:03:03;16.70;99.90
36790;DHT22;22740;52.182;8.780;2023-03-18T13:15:40;16.90;99.90
36790;DHT22;22740;52.182;8.780;2023-03-18T13:21:55;17.00;99.90
36790;DHT22;22740;52.182;8.780;2023-03-18T13:47:18;17.10;99.90
36790;DHT22;22740;52.182;8.780;2023-03-18T13:53:25;16.80;99.90
36790;DHT22;22740;52.182;8.780;2023-03-18T14:05:38;16.80;99.90
36790;DHT22;22740;52.182;8.780;2023-03-18T14:11:45;16.40;99.90
36790;DHT22;22740;52.182;8.780;2023-03-18T14:17:55;16.10;99.90
36790;DHT22;22740;52.182;8.780;2023-03-18T14:42:59;15.90;99.90
36790;DHT22;22740;52.182;8.780;2023-03-18T14:49:01;15.90;99.90
36790;DHT22;22740;52.182;8.780;2023-03-18T14:55:12;15.80;99.90
36790;DHT22;22740;52.182;8.780;2023-03-18T15:01:21;15.80;99.90
36790;DHT22;22740;52.182;8.780;2023-03-18T15:07:34;15.70;99.90
36790;DHT22;22740;52.182;8.780;2023-03-18T15:13:40;15.80;99.90
36790;DHT22;22740;52.182;8.780;2023-03-18T15:19:43;15.60;99.90
36790;DHT22;22740;52.182;8.780;2023-03-18T15:25:47;15.70;99.90
36790;DHT22;22740;52.182;8.780;2023-03-18T15:31:50;15.90;99.90
36790;DHT22;22740;52.182;8.780;2023-03-18T15:38:08;15.90;99.90
36790;DHT22;22740;52.182;8.780;2023-03-18T15:44:14;16.20;99.90
36790;DHT22;22740;52.182;8.780;2023-03-18T15:50:27;16.10;99.90
36790;DHT22;22740;52.182;8.780;2023-03-18T15:56:33;15.80;99.90
36790;DHT22;22740;52.182;8.780;2023-03-18T16:02:36;15.60;99.90
36790;DHT22;22740;52.182;8.780;2023-03-18T16:08:38;15.80;99.90
36790;DHT22;22740;52.182;8.780;2023-03-18T16:14:42;15.90;99.90
36790;DHT22;22740;52.182;8.780;2023-03-18T16:20:44;15.70;99.90
36790;DHT22;22740;52.182;8.780;2023-03-18T16:26:47;15.40;99.90
36790;DHT22;22740;52.182;8.780;2023-03-18T16:32:50;15.00;99.90
36790;DHT22;22740;52.182;8.780;2023-03-18T16:38:52;14.80;99.90
36790;DHT22;22740;52.182;8.780;2023-03-18T16:44:54;14.60;99.90
36790;DHT22;22740;52.182;8.780;2023-03-18T16:50:56;14.30;99.90
36790;DHT22;22740;52.182;8.780;2023-03-18T16:57:03;14.00;99.90
36790;DHT22;22740;52.182;8.780;2023-03-18T17:03:08;13.70;99.90
36790;DHT22;22740;52.182;8.780;2023-03-18T17:09:11;13.50;99.90
36790;DHT22;22740;52.182;8.780;2023-03-18T17:15:16;13.30;99.90
36790;DHT22;22740;52.182;8.780;2023-03-18T17:21:18;13.10;99.90
36790;DHT22;22740;52.182;8.780;2023-03-18T17:27:30;12.80;99.90
36790;DHT22;22740;52.182;8.780;2023-03-18T17:33:34;12.70;99.90
36790;DHT22;22740;52.182;8.780;2023-03-18T17:39:37;12.60;99.90
36790;DHT22;22740;52.182;8.780;2023-03-18T17:45:39;12.50;99.90
36790;DHT22;22740;52.182;8.780;2023-03-18T17:51:45;12.50;99.90
36790;DHT22;22740;52.182;8.780;2023-03-18T17:57:49;12.40;99.90
36790;DHT22;22740;52.182;8.780;2023-03-18T18:03:58;12.40;99.90
36790;DHT22;22740;52.182;8.780;2023-03-18T18:10:00;12.30;99.90
36790;DHT22;22740;52.182;8.780;2023-03-18T18:16:02;12.30;99.90
36790;DHT22;22740;52.182;8.780;2023-03-18T18:22:26;12.40;99.90
36790;DHT22;22740;52.182;8.780;2023-03-18T18:28:41;12.00;99.90
36790;DHT22;22740;52.182;8.780;2023-03-18T18:34:44;11.70;99.90
36790;DHT22;22740;52.182;8.780;2023-03-18T18:40:55;11.30;99.90
36790;DHT22;22740;52.182;8.780;2023-03-18T18:46:58;11.10;99.90
36790;DHT22;22740;52.182;8.780;2023-03-18T18:53:01;11.10;99.90
36790;DHT22;22740;52.182;8.780;2023-03-18T18:59:25;11.00;99.90
36790;DHT22;22740;52.182;8.780;2023-03-18T19:05:29;11.00;99.90
36790;DHT22;22740;52.182;8.780;2023-03-18T19:11:34;11.00;99.90
36790;DHT22;22740;52.182;8.780;2023-03-18T19:17:37;10.90;99.90
36790;DHT22;22740;52.182;8.780;2023-03-18T19:23:41;10.90;99.90
36790;DHT22;22740;52.182;8.780;2023-03-18T19:29:43;10.90;99.90
36790;DHT22;22740;52.182;8.780;2023-03-18T19:35:46;10.80;99.90
36790;DHT22;22740;52.182;8.780;2023-03-18T19:41:56;10.80;99.90
36790;DHT22;22740;52.182;8.780;2023-03-18T19:47:58;10.70;99.90
36790;DHT22;22740;52.182;8.780;2023-03-18T19:54:02;10.70;99.90
36790;DHT22;22740;52.182;8.780;2023-03-18T20:00:17;10.70;99.90
36790;DHT22;22740;52.182;8.780;2023-03-18T20:06:21;10.70;99.90
36790;DHT22;22740;52.182;8.780;2023-03-18T20:12:28;10.80;99.90
36790;DHT22;22740;52.182;8.780;2023-03-18T20:18:30;10.70;99.90
36790;DHT22;22740;52.182;8.780;2023-03-18T20:24:32;10.60;99.90
36790;DHT22;22740;52.182;8.780;2023-03-18T20:30:38;10.50;99.90
36790;DHT22;22740;52.182;8.780;2023-03-18T20:36:41;10.50;99.90
36790;DHT22;22740;52.182;8.780;2023-03-18T20:42:44;10.40;99.90
36790;DHT22;22740;52.182;8.780;2023-03-18T20:48:46;10.40;99.90
36790;DHT22;22740;52.182;8.780;2023-03-18T20:54:50;10.40;99.90
36790;DHT22;22740;52.182;8.780;2023-03-18T21:00:54;10.30;99.90
36790;DHT22;22740;52.182;8.780;2023-03-18T21:06:56;10.30;99.90
36790;DHT22;22740;52.182;8.780;2023-03-18T21:12:58;10.20;99.90
36790;DHT22;22740;52.182;8.780;2023-03-18T21:18:59;10.20;99.90
36790;DHT22;22740;52.182;8.780;2023-03-18T21:25:03;10.20;99.90
36790;DHT22;22740;52.182;8.780;2023-03-18T21:31:23;10.10;99.90
36790;DHT22;22740;52.182;8.780;2023-03-18T21:37:26;10.10;99.90
36790;DHT22;22740;52.182;8.780;2023-03-18T21:43:37;10.00;99.90
36790;DHT22;22740;52.182;8.780;2023-03-18T21:49:41;9.90;99.90
36790;DHT22;22740;52.182;8.780;2023-03-18T21:55:44;9.80;99.90
36790;DHT22;22740;52.182;8.780;2023-03-18T22:01:49;9.80;99.90
36790;DHT22;22740;52.182;8.780;2023-03-18T22:07:51;9.80;99.90
36790;DHT22;22740;52.182;8.780;2023-03-18T22:13:53;9.70;99.90
36790;DHT22;22740;52.182;8.780;2023-03-18T22:19:57;9.60;99.90
36790;DHT22;22740;52.182;8.780;2023-03-18T22:25:59;9.60;99.90
36790;DHT22;22740;52.182;8.780;2023-03-18T22:32:01;9.40;99.90
36790;DHT22;22740;52.182;8.780;2023-03-18T22:38:02;9.40;99.90
36790;DHT22;22740;52.182;8.780;2023-03-18T22:44:04;9.30;99.90
36790;DHT22;22740;52.182;8.780;2023-03-18T22:50:07;9.30;99.90
36790;DHT22;22740;52.182;8.780;2023-03-18T22:56:10;9.20;99.90
36790;DHT22;22740;52.182;8.780;2023-03-18T23:02:20;9.10;99.90
36790;DHT22;22740;52.182;8.780;2023-03-18T23:08:23;8.90;99.90
36790;DHT22;22740;52.182;8.780;2023-03-18T23:14:25;8.90;99.90
36790;DHT22;22740;52.182;8.780;2023-03-18T23:20:27;8.80;99.90
36790;DHT22;22740;52.182;8.780;2023-03-18T23:26:28;8.70;99.90
36790;DHT22;22740;52.182;8.780;2023-03-18T23:32:31;8.80;99.90
36790;DHT22;22740;52.182;8.780;2023-03-18T23:38:34;8.90;99.90
36790;DHT22;22740;52.182;8.780;2023-03-18T23:44:36;8.90;99.90
36790;DHT22;22740;52.182;8.780;2023-03-18T23:50:39;8.90;99.90
36790;DHT22;22740;52.182;8.780;2023-03-18T23:56:41;9.10;99.90
